createdAt,value
2018-02-23T00:00:06.508Z,29.60
2018-02-23T00:02:33.122Z,20.85
2018-02-23T00:04:59.737Z,21.80
2018-02-23T00:07:26.419Z,20.67
2018-02-23T00:09:53.041Z,23.08
2018-02-23T00:12:19.649Z,21.73
2018-02-23T00:14:46.284Z,22.00
2018-02-23T00:17:12.973Z,23.12
2018-02-23T00:19:39.594Z,23.85
2018-02-23T00:22:06.226Z,21.75
2018-02-23T00:24:32.843Z,22.52
2018-02-23T00:26:59.530Z,26.55
2018-02-23T00:29:26.156Z,24.92
2018-02-23T00:31:52.760Z,22.40
2018-02-23T00:34:19.384Z,25.17
2018-02-23T00:36:46.044Z,25.40
2018-02-23T00:39:12.770Z,21.60
2018-02-23T00:41:39.465Z,22.70
2018-02-23T00:44:06.047Z,25.17
2018-02-23T00:46:32.746Z,24.80
2018-02-23T00:48:59.390Z,25.12
2018-02-23T00:51:26.024Z,25.05
2018-02-23T00:53:52.834Z,23.15
2018-02-23T00:56:19.437Z,20.73
2018-02-23T00:58:46.071Z,26.90
2018-02-23T01:01:12.682Z,23.87
2018-02-23T01:03:39.293Z,26.00
2018-02-23T01:06:05.922Z,28.23
2018-02-23T01:08:32.538Z,25.40
2018-02-23T01:10:59.177Z,25.17
2018-02-23T01:13:25.919Z,23.67
2018-02-23T01:15:52.527Z,25.12
2018-02-23T01:18:19.144Z,26.83
2018-02-23T01:20:45.793Z,37.67
2018-02-23T01:23:12.410Z,23.62
2018-02-23T01:25:39.078Z,24.87
2018-02-23T01:28:05.715Z,24.73
2018-02-23T01:30:32.355Z,25.42
2018-02-23T01:32:58.997Z,31.40
2018-02-23T01:35:25.671Z,25.62
2018-02-23T01:37:52.297Z,24.25
2018-02-23T01:40:18.909Z,25.45
2018-02-23T01:42:45.530Z,24.70
2018-02-23T01:45:12.181Z,28.58
2018-02-23T01:47:38.798Z,24.65
2018-02-23T01:50:05.505Z,25.48
2018-02-23T01:52:32.206Z,30.88
2018-02-23T01:54:58.843Z,25.12
2018-02-23T01:57:25.525Z,24.98
2018-02-23T01:59:52.137Z,25.15
2018-02-23T02:02:18.746Z,31.05
2018-02-23T02:04:45.377Z,26.15
2018-02-23T02:07:12.042Z,26.25
2018-02-23T02:09:38.653Z,28.00
2018-02-23T02:12:05.281Z,29.02
2018-02-23T02:14:31.958Z,25.12
2018-02-23T02:16:58.572Z,25.17
2018-02-23T02:19:25.221Z,28.90
2018-02-23T02:21:51.878Z,24.80
2018-02-23T02:24:18.495Z,26.58
2018-02-23T02:26:45.122Z,25.00
2018-02-23T02:29:11.738Z,26.98
2018-02-23T02:31:38.349Z,26.67
2018-02-23T02:34:04.987Z,30.88
2018-02-23T02:36:31.610Z,25.83
2018-02-23T02:38:58.229Z,25.27
2018-02-23T02:41:24.857Z,27.23
2018-02-23T02:43:51.566Z,32.65
2018-02-23T02:46:18.266Z,27.33
2018-02-23T02:48:44.900Z,29.98
2018-02-23T02:51:11.509Z,28.23
2018-02-23T02:53:38.124Z,28.98
2018-02-23T02:56:04.827Z,27.48
2018-02-23T02:58:31.450Z,28.08
2018-02-23T03:00:58.066Z,27.25
2018-02-23T03:03:24.693Z,26.80
2018-02-23T03:05:51.378Z,36.13
2018-02-23T03:08:17.995Z,32.05
2018-02-23T03:10:44.699Z,28.87
2018-02-23T03:13:11.397Z,28.67
2018-02-23T03:15:38.040Z,28.80
2018-02-23T03:18:04.663Z,27.73
2018-02-23T03:20:31.318Z,29.15
2018-02-23T03:22:57.931Z,32.70
2018-02-23T03:25:24.562Z,31.23
2018-02-23T03:27:51.233Z,34.13
2018-02-23T03:30:17.878Z,35.35
2018-02-23T03:32:44.613Z,27.35
2018-02-23T03:35:11.221Z,31.40
2018-02-23T03:37:37.839Z,28.58
2018-02-23T03:40:04.536Z,39.63
2018-02-23T03:42:31.173Z,28.62
2018-02-23T03:44:57.852Z,30.08
2018-02-23T03:47:24.482Z,30.42
2018-02-23T03:49:51.190Z,34.70
2018-02-23T03:52:17.808Z,31.35
2018-02-23T03:54:44.442Z,30.35
2018-02-23T03:57:11.054Z,36.78
2018-02-23T03:59:37.763Z,30.50
2018-02-23T04:02:04.490Z,33.95
2018-02-23T04:04:31.107Z,29.65
2018-02-23T04:06:57.808Z,28.23
2018-02-23T04:09:24.442Z,35.97
2018-02-23T04:11:51.063Z,29.70
2018-02-23T04:14:17.678Z,29.80
2018-02-23T04:16:44.321Z,30.25
2018-02-23T04:19:10.965Z,30.33
2018-02-23T04:21:37.577Z,35.47
2018-02-23T04:24:04.202Z,30.12
2018-02-23T04:26:30.875Z,32.45
2018-02-23T04:28:57.518Z,32.47
2018-02-23T04:31:24.146Z,28.83
2018-02-23T04:33:50.793Z,31.77
2018-02-23T04:36:17.409Z,29.45
2018-02-23T04:38:44.078Z,35.38
2018-02-23T04:41:10.689Z,33.15
2018-02-23T04:43:37.302Z,31.55
2018-02-23T04:46:03.989Z,37.45
2018-02-23T04:48:31.554Z,34.33
2018-02-23T04:50:58.174Z,34.47
2018-02-23T04:53:24.869Z,40.03
2018-02-23T04:55:51.453Z,36.47
2018-02-23T04:58:18.066Z,44.17
2018-02-23T05:00:44.694Z,30.08
2018-02-23T05:03:11.388Z,33.35
2018-02-23T05:05:38.002Z,32.10
2018-02-23T05:08:04.670Z,33.28
2018-02-23T05:10:31.310Z,38.58
2018-02-23T05:12:57.921Z,37.58
2018-02-23T05:15:24.554Z,34.65
2018-02-23T05:17:51.170Z,33.75
2018-02-23T05:20:17.801Z,36.30
2018-02-23T05:22:44.506Z,31.80
2018-02-23T05:25:11.122Z,34.45
2018-02-23T05:27:37.736Z,35.13
2018-02-23T05:30:04.365Z,34.28
2018-02-23T05:32:31.059Z,36.78
2018-02-23T05:34:57.699Z,36.60
2018-02-23T05:37:24.377Z,38.22
2018-02-23T05:39:51.118Z,32.88
2018-02-23T05:42:17.726Z,34.60
2018-02-23T05:44:44.358Z,36.45
2018-02-23T05:47:10.994Z,33.45
2018-02-23T05:49:37.635Z,35.30
2018-02-23T05:52:04.274Z,38.30
2018-02-23T05:54:30.914Z,42.80
2018-02-23T05:56:57.592Z,31.02
2018-02-23T05:59:24.214Z,37.60
2018-02-23T06:01:50.930Z,40.22
2018-02-23T06:04:17.557Z,36.38
2018-02-23T06:06:44.173Z,40.35
2018-02-23T06:09:10.794Z,36.67
2018-02-23T06:11:37.492Z,33.92
2018-02-23T06:14:04.117Z,39.53
2018-02-23T06:16:30.808Z,38.40
2018-02-23T06:18:58.197Z,40.00
2018-02-23T06:21:24.826Z,39.38
2018-02-23T06:23:51.440Z,37.10
2018-02-23T06:26:18.048Z,40.05
2018-02-23T06:28:44.682Z,38.72
2018-02-23T06:31:11.293Z,35.40
2018-02-23T06:33:37.918Z,39.42
2018-02-23T06:36:04.603Z,39.08
2018-02-23T06:38:31.219Z,36.60
2018-02-23T06:40:57.838Z,52.10
2018-02-23T06:43:24.469Z,36.75
2018-02-23T06:45:51.073Z,41.25
2018-02-23T06:48:17.730Z,41.37
2018-02-23T06:50:44.361Z,35.60
2018-02-23T06:53:11.077Z,42.75
2018-02-23T06:55:37.686Z,40.00
2018-02-23T06:58:04.311Z,36.75
2018-02-23T07:00:30.918Z,34.88
2018-02-23T07:02:57.525Z,32.20
2018-02-23T07:05:24.262Z,39.40
2018-02-23T07:10:21.846Z,38.88
2018-02-23T07:12:48.473Z,38.78
2018-02-23T07:15:15.138Z,34.67
2018-02-23T07:17:41.865Z,36.00
2018-02-23T07:20:08.502Z,45.72
2018-02-23T07:22:35.142Z,32.03
2018-02-23T07:25:01.758Z,32.13
2018-02-23T07:27:28.417Z,33.90
2018-02-23T07:29:55.101Z,37.67
2018-02-23T07:32:21.713Z,40.28
2018-02-23T07:34:48.438Z,39.67
2018-02-23T07:37:15.077Z,31.20
2018-02-23T07:39:41.760Z,35.25
2018-02-23T07:42:08.395Z,39.22
2018-02-23T07:44:35.037Z,40.53
2018-02-23T07:47:01.642Z,37.72
2018-02-23T07:49:28.265Z,38.38
2018-02-23T07:51:54.881Z,38.35
2018-02-23T07:54:21.595Z,32.97
2018-02-23T07:56:48.221Z,39.90
2018-02-23T07:59:14.829Z,34.75
2018-02-23T08:01:41.433Z,37.75
2018-02-23T08:04:08.065Z,43.45
2018-02-23T08:06:34.670Z,28.83
2018-02-23T08:09:01.296Z,39.50
2018-02-23T08:11:27.935Z,35.97
2018-02-23T08:13:54.545Z,42.38
2018-02-23T08:16:21.162Z,40.33
2018-02-23T08:18:47.886Z,35.67
2018-02-23T08:21:14.490Z,39.90
2018-02-23T08:23:41.123Z,36.15
2018-02-23T08:26:07.750Z,33.83
2018-02-23T08:28:34.362Z,39.67
2018-02-23T08:31:00.971Z,43.00
2018-02-23T08:33:27.604Z,46.42
2018-02-23T08:35:54.322Z,37.15
2018-02-23T08:38:20.934Z,39.20
2018-02-23T08:40:47.570Z,37.85
2018-02-23T08:43:14.190Z,45.97
2018-02-23T08:45:40.913Z,35.08
2018-02-23T08:48:07.618Z,38.28
2018-02-23T08:50:34.255Z,38.30
2018-02-23T08:53:00.890Z,33.45
2018-02-23T08:55:27.575Z,34.58
2018-02-23T08:57:54.185Z,40.05
2018-02-23T09:00:20.803Z,47.42
2018-02-23T09:02:47.554Z,41.20
2018-02-23T09:05:14.174Z,38.42
2018-02-23T09:07:40.939Z,30.50
2018-02-23T09:10:07.582Z,42.70
2018-02-23T09:12:34.224Z,31.58
2018-02-23T09:15:00.817Z,35.85
2018-02-23T09:17:27.490Z,38.00
2018-02-23T09:19:54.105Z,37.38
2018-02-23T09:22:20.717Z,31.52
2018-02-23T09:24:47.445Z,38.88
2018-02-23T09:27:14.151Z,36.55
2018-02-23T09:29:40.761Z,38.50
2018-02-23T09:32:13.162Z,35.92
2018-02-23T09:34:42.685Z,36.72
2018-02-23T09:37:09.301Z,33.80
2018-02-23T09:39:35.941Z,34.67
2018-02-23T09:42:02.629Z,32.90
2018-02-23T09:44:29.257Z,32.85
2018-02-23T09:46:55.882Z,33.92
2018-02-23T09:49:22.606Z,26.48
2018-02-23T09:51:49.217Z,34.35
2018-02-23T09:54:15.882Z,34.08
2018-02-23T09:56:42.590Z,32.90
2018-02-23T09:59:09.302Z,30.35
2018-02-23T10:01:35.921Z,29.40
2018-02-23T10:04:02.541Z,36.60
2018-02-23T10:06:29.162Z,28.17
2018-02-23T10:08:55.823Z,39.10
2018-02-23T10:11:22.462Z,39.33
2018-02-23T10:13:49.137Z,33.13
2018-02-23T10:16:15.762Z,37.53
2018-02-23T10:18:42.365Z,28.02
2018-02-23T10:21:08.978Z,26.02
2018-02-23T10:23:35.631Z,32.53
2018-02-23T10:26:02.250Z,31.70
2018-02-23T10:28:28.932Z,40.38
2018-02-23T10:30:55.716Z,33.92
2018-02-23T10:33:22.413Z,28.80
2018-02-23T10:35:49.026Z,34.92
2018-02-23T10:38:15.648Z,29.90
2018-02-23T10:40:42.261Z,38.47
2018-02-23T10:43:10.369Z,27.30
2018-02-23T10:45:37.021Z,31.83
2018-02-23T10:48:03.634Z,29.10
2018-02-23T10:50:30.361Z,33.13
2018-02-23T10:52:56.990Z,28.73
2018-02-23T10:55:23.602Z,28.05
2018-02-23T10:57:50.219Z,33.83
2018-02-23T11:00:16.842Z,27.85
2018-02-23T11:02:43.457Z,33.28
2018-02-23T11:05:10.153Z,36.42
2018-02-23T11:07:36.785Z,29.37
2018-02-23T11:10:03.434Z,27.92
2018-02-23T11:12:30.083Z,26.42
2018-02-23T11:14:56.714Z,31.08
2018-02-23T11:17:23.326Z,26.33
2018-02-23T11:19:49.942Z,28.90
2018-02-23T11:22:16.570Z,29.50
2018-02-23T11:24:43.297Z,43.87
2018-02-23T11:27:09.958Z,36.53
2018-02-23T11:29:36.587Z,35.42
2018-02-23T11:32:03.198Z,40.47
2018-02-23T11:34:29.806Z,37.97
2018-02-23T11:36:56.434Z,41.60
2018-02-23T11:39:23.145Z,33.28
2018-02-23T11:41:49.847Z,40.67
2018-02-23T11:44:16.473Z,30.98
2018-02-23T11:46:43.122Z,32.50
2018-02-23T11:49:09.736Z,29.08
2018-02-23T11:51:36.361Z,32.03
2018-02-23T11:54:03.082Z,33.25
2018-02-23T11:56:29.689Z,31.48
2018-02-23T11:58:56.422Z,28.73
2018-02-23T12:01:23.043Z,33.58
2018-02-23T12:03:49.654Z,38.80
2018-02-23T12:06:16.281Z,28.02
2018-02-23T12:08:42.981Z,33.13
2018-02-23T12:11:09.613Z,33.85
2018-02-23T12:13:36.295Z,31.40
2018-02-23T12:16:02.935Z,30.58
2018-02-23T12:18:29.642Z,30.15
2018-02-23T12:20:56.418Z,29.65
2018-02-23T12:23:23.057Z,32.90
2018-02-23T12:25:49.757Z,32.35
2018-02-23T12:28:16.501Z,27.48
2018-02-23T12:30:43.139Z,32.75
2018-02-23T12:33:09.759Z,29.77
2018-02-23T12:35:36.389Z,34.60
2018-02-23T12:38:03.054Z,29.10
2018-02-23T12:40:29.666Z,29.02
2018-02-23T12:42:56.298Z,24.63
2018-02-23T12:45:22.969Z,31.87
2018-02-23T12:47:49.582Z,26.45
2018-02-23T12:50:16.215Z,33.90
2018-02-23T12:52:42.889Z,26.98
2018-02-23T12:55:09.506Z,26.67
2018-02-23T12:57:36.135Z,33.42
2018-02-23T13:00:02.849Z,27.55
2018-02-23T13:02:29.589Z,33.72
2018-02-23T13:04:56.331Z,27.25
2018-02-23T13:07:23.040Z,27.02
2018-02-23T13:09:49.650Z,34.22
2018-02-23T13:12:16.305Z,27.37
2018-02-23T13:14:48.713Z,29.52
2018-02-23T13:17:15.334Z,37.17
2018-02-23T13:19:42.104Z,34.55
2018-02-23T13:22:08.714Z,33.58
2018-02-23T13:24:35.445Z,29.58
2018-02-23T13:27:07.819Z,27.80
2018-02-23T13:29:34.453Z,29.15
2018-02-23T13:32:01.082Z,28.48
2018-02-23T13:34:27.693Z,30.55
2018-02-23T13:36:54.376Z,29.70
2018-02-23T13:39:20.985Z,27.83
2018-02-23T13:41:47.599Z,30.35
2018-02-23T13:44:14.289Z,28.65
2018-02-23T13:46:40.934Z,26.23
2018-02-23T13:49:07.614Z,29.92
2018-02-23T13:51:34.242Z,26.85
2018-02-23T13:54:06.584Z,30.95
2018-02-23T13:56:33.197Z,29.73
2018-02-23T13:58:59.826Z,27.80
2018-02-23T14:01:26.434Z,31.52
2018-02-23T14:03:53.104Z,29.02
2018-02-23T14:06:25.426Z,26.17
2018-02-23T14:08:52.042Z,30.10
2018-02-23T14:11:18.650Z,29.50
2018-02-23T14:13:45.288Z,26.35
2018-02-23T14:16:11.961Z,27.05
2018-02-23T14:18:38.573Z,30.25
2018-02-23T14:21:05.202Z,25.33
2018-02-23T14:23:31.886Z,31.33
2018-02-23T14:25:58.538Z,31.52
2018-02-23T14:28:25.267Z,27.37
2018-02-23T14:30:51.906Z,31.27
2018-02-23T14:33:18.542Z,24.83
2018-02-23T14:35:45.170Z,28.83
2018-02-23T14:38:11.790Z,28.62
2018-02-23T14:40:38.462Z,30.17
2018-02-23T14:43:05.090Z,26.05
2018-02-23T14:45:31.702Z,25.95
2018-02-23T14:47:58.318Z,29.33
2018-02-23T14:50:30.958Z,25.77
2018-02-23T14:52:57.569Z,29.08
2018-02-23T14:55:24.233Z,25.83
2018-02-23T14:57:50.865Z,31.62
2018-02-23T15:00:17.479Z,25.67
2018-02-23T15:02:44.089Z,27.65
2018-02-23T15:05:10.798Z,24.10
2018-02-23T15:07:37.405Z,29.45
2018-02-23T15:10:04.017Z,27.60
2018-02-23T15:12:30.708Z,26.08
2018-02-23T15:14:57.322Z,26.12
2018-02-23T15:17:23.945Z,28.87
2018-02-23T15:19:50.626Z,28.20
2018-02-23T15:22:17.246Z,28.85
2018-02-23T15:24:43.910Z,26.50
2018-02-23T15:27:10.694Z,25.95
2018-02-23T15:29:37.265Z,33.15
2018-02-23T15:32:09.686Z,32.33
2018-02-23T15:34:36.402Z,31.08
2018-02-23T15:37:03.038Z,26.85
2018-02-23T15:39:29.662Z,31.15
2018-02-23T15:41:56.319Z,29.95
2018-02-23T15:44:22.934Z,29.77
2018-02-23T15:46:49.562Z,30.48
2018-02-23T15:49:16.179Z,24.23
2018-02-23T15:51:58.788Z,27.75
2018-02-23T15:54:25.401Z,28.55
2018-02-23T15:56:52.014Z,29.33
2018-02-23T15:59:18.646Z,28.17
2018-02-23T16:01:45.258Z,27.13
2018-02-23T16:04:11.871Z,33.55
2018-02-23T16:06:38.503Z,29.80
2018-02-23T16:09:05.120Z,31.10
2018-02-23T16:11:31.728Z,30.40
2018-02-23T16:13:58.365Z,28.65
2018-02-23T16:16:24.978Z,32.30
2018-02-23T16:18:51.589Z,34.78
2018-02-23T16:21:18.218Z,30.15
2018-02-23T16:23:44.837Z,31.00
2018-02-23T16:26:11.454Z,33.80
2018-02-23T16:28:38.126Z,44.20
2018-02-23T16:31:04.736Z,34.75
2018-02-23T16:33:31.354Z,35.70
2018-02-23T16:35:58.061Z,33.58
2018-02-23T16:38:24.670Z,38.30
2018-02-23T16:40:51.329Z,38.97
2018-02-23T16:43:18.061Z,35.33
2018-02-23T16:45:44.701Z,43.10
2018-02-23T16:48:11.314Z,38.72
2018-02-23T16:50:37.985Z,41.25
2018-02-23T16:53:04.663Z,34.17
2018-02-23T16:55:31.270Z,39.10
2018-02-23T16:57:57.901Z,37.33
2018-02-23T17:00:24.510Z,43.22
2018-02-23T17:02:51.117Z,44.20
2018-02-23T17:05:17.858Z,38.05
2018-02-23T17:07:44.558Z,37.50
2018-02-23T17:10:11.197Z,39.25
2018-02-23T17:12:37.877Z,38.15
2018-02-23T17:15:04.486Z,48.75
2018-02-23T17:17:31.096Z,44.45
2018-02-23T17:19:57.794Z,43.00
2018-02-23T17:22:24.414Z,38.83
2018-02-23T17:24:51.022Z,38.55
2018-02-23T17:27:17.683Z,35.15
2018-02-23T17:29:44.294Z,45.97
2018-02-23T17:32:10.914Z,38.30
2018-02-23T17:34:37.585Z,39.67
2018-02-23T17:37:04.225Z,37.58
2018-02-23T17:39:30.833Z,37.10
2018-02-23T17:41:57.466Z,41.17
2018-02-23T17:44:24.115Z,32.60
2018-02-23T17:46:50.709Z,39.33
2018-02-23T17:49:17.421Z,40.47
2018-02-23T17:51:44.068Z,40.08
2018-02-23T17:54:10.682Z,39.83
2018-02-23T17:56:37.312Z,37.67
2018-02-23T17:59:03.921Z,40.25
2018-02-23T18:01:30.542Z,41.50
2018-02-23T18:03:57.257Z,36.08
2018-02-23T18:06:23.894Z,39.38
2018-02-23T18:08:50.549Z,52.17
2018-02-23T18:11:17.175Z,48.97
2018-02-23T18:13:43.802Z,36.70
2018-02-23T18:16:10.454Z,41.47
2018-02-23T18:18:38.091Z,43.63
2018-02-23T18:21:04.704Z,45.42
2018-02-23T18:23:31.398Z,37.38
2018-02-23T18:25:58.025Z,40.10
2018-02-23T18:28:24.737Z,38.53
2018-02-23T18:30:51.351Z,46.92
2018-02-23T18:33:18.049Z,42.08
2018-02-23T18:35:44.663Z,35.90
2018-02-23T18:38:11.278Z,39.97
2018-02-23T18:40:37.974Z,37.72
2018-02-23T18:43:04.651Z,38.03
2018-02-23T18:45:31.266Z,39.25
2018-02-23T18:47:57.891Z,46.28
2018-02-23T18:50:24.526Z,40.22
2018-02-23T18:52:51.166Z,30.88
2018-02-23T18:55:17.909Z,43.38
2018-02-23T18:57:44.545Z,46.25
2018-02-23T19:00:11.167Z,39.10
2018-02-23T19:02:37.869Z,34.03
2018-02-23T19:05:04.629Z,35.90
2018-02-23T19:07:31.237Z,36.58
2018-02-23T19:09:57.866Z,34.58
2018-02-23T19:12:24.481Z,32.88
2018-02-23T19:14:51.094Z,34.40
2018-02-23T19:17:17.722Z,35.45
2018-02-23T19:19:44.338Z,32.38
2018-02-23T19:22:11.051Z,37.53
2018-02-23T19:24:37.720Z,38.95
2018-02-23T19:27:04.417Z,31.58
2018-02-23T19:29:31.102Z,36.65
2018-02-23T19:31:58.217Z,33.20
2018-02-23T19:34:24.860Z,35.03
2018-02-23T19:36:51.471Z,35.55
2018-02-23T19:39:18.105Z,40.53
2018-02-23T19:41:44.726Z,39.65
2018-02-23T19:44:11.344Z,35.63
2018-02-23T19:46:38.065Z,40.28
2018-02-23T19:49:04.688Z,38.42
2018-02-23T19:51:31.321Z,40.83
2018-02-23T19:53:57.950Z,39.25
2018-02-23T19:56:24.557Z,43.67
2018-02-23T19:58:51.241Z,32.58
2018-02-23T20:01:17.982Z,34.42
2018-02-23T20:03:44.617Z,34.53
2018-02-23T20:06:11.233Z,35.65
2018-02-23T20:08:37.897Z,36.70
2018-02-23T20:11:04.545Z,33.03
2018-02-23T20:13:31.178Z,31.25
2018-02-23T20:15:57.810Z,33.00
2018-02-23T20:18:24.458Z,30.98
2018-02-23T20:20:51.101Z,31.65
2018-02-23T20:23:17.728Z,28.40
2018-02-23T20:25:44.337Z,56.37
2018-02-23T20:28:11.013Z,40.97
2018-02-23T20:30:37.750Z,33.47
2018-02-23T20:33:04.365Z,39.50
2018-02-23T20:35:30.982Z,30.55
2018-02-23T20:37:57.716Z,30.00
2018-02-23T20:40:24.341Z,33.92
2018-02-23T20:42:50.954Z,29.87
2018-02-23T20:45:17.690Z,29.98
2018-02-23T20:47:44.315Z,30.95
2018-02-23T20:50:10.930Z,31.45
2018-02-23T20:52:37.623Z,33.17
2018-02-23T20:55:04.242Z,32.03
2018-02-23T20:57:30.857Z,31.12
2018-02-23T20:59:57.485Z,29.85
2018-02-23T21:02:24.166Z,34.00
2018-02-23T21:04:50.802Z,34.40
2018-02-23T21:07:17.454Z,33.55
2018-02-23T21:09:44.067Z,31.42
2018-02-23T21:12:10.725Z,31.37
2018-02-23T21:14:37.463Z,33.88
2018-02-23T21:17:04.082Z,33.60
2018-02-23T21:19:30.701Z,44.30
2018-02-23T21:21:57.330Z,38.20
2018-02-23T21:24:24.017Z,33.15
2018-02-23T21:26:50.653Z,31.80
2018-02-23T21:29:17.387Z,32.80
2018-02-23T21:31:43.997Z,35.70
2018-02-23T21:34:10.615Z,34.00
2018-02-23T21:36:37.245Z,34.60
2018-02-23T21:39:03.961Z,44.80
2018-02-23T21:41:36.571Z,40.10
2018-02-23T21:44:03.201Z,33.53
2018-02-23T21:46:29.814Z,31.52
2018-02-23T21:48:56.448Z,35.83
2018-02-23T21:51:23.061Z,29.12
2018-02-23T21:53:49.678Z,35.25
2018-02-23T21:56:16.375Z,40.28
2018-02-23T21:58:42.994Z,39.55
2018-02-23T22:01:09.611Z,33.50
2018-02-23T22:03:36.255Z,33.33
2018-02-23T22:06:02.968Z,35.53
2018-02-23T22:08:29.666Z,36.42
2018-02-23T22:10:56.294Z,41.85
2018-02-23T22:13:22.988Z,39.40
2018-02-23T22:15:49.689Z,40.40
2018-02-23T22:18:16.426Z,35.13
2018-02-23T22:20:43.046Z,36.70
2018-02-23T22:23:09.661Z,35.83
2018-02-23T22:25:36.346Z,43.50
2018-02-23T22:28:02.991Z,34.67
2018-02-23T22:30:29.664Z,40.72
2018-02-23T22:32:56.366Z,40.20
2018-02-23T22:35:23.006Z,41.15
2018-02-23T22:37:49.686Z,41.58
2018-02-23T22:40:16.390Z,39.05
2018-02-23T22:42:43.015Z,41.00
2018-02-23T22:45:09.630Z,47.53
2018-02-23T22:47:36.257Z,39.20
2018-02-23T22:50:02.882Z,41.80
2018-02-23T22:52:29.501Z,37.30
2018-02-23T22:54:56.134Z,33.30
2018-02-23T22:57:22.748Z,44.17
2018-02-23T22:59:49.393Z,35.42
2018-02-23T23:02:16.025Z,37.80
2018-02-23T23:04:42.648Z,40.65
2018-02-23T23:07:14.260Z,46.25
2018-02-23T23:09:40.893Z,39.20
2018-02-23T23:12:07.505Z,46.13
2018-02-23T23:14:34.123Z,35.70
2018-02-23T23:17:00.816Z,41.22
2018-02-23T23:19:27.425Z,46.00
2018-02-23T23:21:54.038Z,43.80
2018-02-23T23:24:20.670Z,38.45
2018-02-23T23:26:47.342Z,41.00
2018-02-23T23:29:13.962Z,40.75
2018-02-23T23:31:40.597Z,38.17
2018-02-23T23:34:07.205Z,42.05
2018-02-23T23:36:33.898Z,50.67
2018-02-23T23:39:00.522Z,40.50
2018-02-23T23:41:27.176Z,45.15
2018-02-23T23:43:53.790Z,44.08
2018-02-23T23:46:20.454Z,44.40
2018-02-23T23:48:47.074Z,43.85
2018-02-23T23:51:13.685Z,48.22
2018-02-23T23:53:40.369Z,46.58
2018-02-23T23:56:06.986Z,48.47
2018-02-23T23:58:33.658Z,41.20
